sensor_id;sensor_type;location;lat;lon;timestamp;P1;durP1;ratioP1;P2;durP2;ratioP2
38427;SDS011;24211;49.980;19.776;2023-10-19T00:00:41;30.83;;;14.68;;
38427;SDS011;24211;49.980;19.776;2023-10-19T00:03:32;28.38;;;14.30;;
38427;SDS011;24211;49.980;19.776;2023-10-19T00:06:00;35.42;;;15.18;;
38427;SDS011;24211;49.980;19.776;2023-10-19T00:08:27;32.42;;;14.32;;
38427;SDS011;24211;49.980;19.776;2023-10-19T00:11:03;26.83;;;13.65;;
38427;SDS011;24211;49.980;19.776;2023-10-19T00:13:37;28.83;;;13.77;;
38427;SDS011;24211;49.980;19.776;2023-10-19T00:16:07;27.80;;;13.35;;
38427;SDS011;24211;49.980;19.776;2023-10-19T00:18:43;30.90;;;13.38;;
38427;SDS011;24211;49.980;19.776;2023-10-19T00:21:11;28.00;;;12.68;;
38427;SDS011;24211;49.980;19.776;2023-10-19T00:23:53;28.02;;;12.85;;
38427;SDS011;24211;49.980;19.776;2023-10-19T00:26:32;26.15;;;12.70;;
38427;SDS011;24211;49.980;19.776;2023-10-19T00:28:59;30.45;;;13.23;;
38427;SDS011;24211;49.980;19.776;2023-10-19T00:31:45;29.00;;;12.82;;
38427;SDS011;24211;49.980;19.776;2023-10-19T00:34:12;29.27;;;13.48;;
38427;SDS011;24211;49.980;19.776;2023-10-19T00:36:40;33.45;;;14.48;;
38427;SDS011;24211;49.980;19.776;2023-10-19T00:39:07;31.10;;;14.40;;
38427;SDS011;24211;49.980;19.776;2023-10-19T00:42:03;34.67;;;15.80;;
38427;SDS011;24211;49.980;19.776;2023-10-19T00:44:30;34.33;;;15.38;;
38427;SDS011;24211;49.980;19.776;2023-10-19T00:47:06;31.95;;;14.00;;
38427;SDS011;24211;49.980;19.776;2023-10-19T00:49:39;33.08;;;13.95;;
38427;SDS011;24211;49.980;19.776;2023-10-19T00:52:11;29.33;;;13.23;;
38427;SDS011;24211;49.980;19.776;2023-10-19T00:54:39;34.17;;;14.00;;
38427;SDS011;24211;49.980;19.776;2023-10-19T00:57:19;30.15;;;13.43;;
38427;SDS011;24211;49.980;19.776;2023-10-19T00:59:47;26.90;;;13.40;;
38427;SDS011;24211;49.980;19.776;2023-10-19T01:02:15;29.25;;;12.90;;
38427;SDS011;24211;49.980;19.776;2023-10-19T01:05:01;30.33;;;13.07;;
38427;SDS011;24211;49.980;19.776;2023-10-19T01:07:33;27.88;;;12.88;;
38427;SDS011;24211;49.980;19.776;2023-10-19T01:10:06;28.25;;;12.35;;
38427;SDS011;24211;49.980;19.776;2023-10-19T01:12:35;30.77;;;13.90;;
38427;SDS011;24211;49.980;19.776;2023-10-19T01:15:10;33.50;;;13.88;;
38427;SDS011;24211;49.980;19.776;2023-10-19T01:17:41;32.38;;;14.43;;
38427;SDS011;24211;49.980;19.776;2023-10-19T01:20:13;29.17;;;12.88;;
38427;SDS011;24211;49.980;19.776;2023-10-19T01:23:09;31.15;;;13.50;;
38427;SDS011;24211;49.980;19.776;2023-10-19T01:28:08;31.38;;;13.80;;
38427;SDS011;24211;49.980;19.776;2023-10-19T01:30:37;32.53;;;14.63;;
38427;SDS011;24211;49.980;19.776;2023-10-19T01:33:05;34.50;;;15.82;;
38427;SDS011;24211;49.980;19.776;2023-10-19T01:35:45;37.92;;;15.48;;
38427;SDS011;24211;49.980;19.776;2023-10-19T01:38:31;33.10;;;15.50;;
38427;SDS011;24211;49.980;19.776;2023-10-19T01:40:59;33.25;;;15.93;;
38427;SDS011;24211;49.980;19.776;2023-10-19T01:43:28;35.53;;;16.15;;
38427;SDS011;24211;49.980;19.776;2023-10-19T01:45:59;37.65;;;16.67;;
38427;SDS011;24211;49.980;19.776;2023-10-19T01:48:32;35.67;;;16.98;;
38427;SDS011;24211;49.980;19.776;2023-10-19T01:51:03;37.47;;;16.23;;
38427;SDS011;24211;49.980;19.776;2023-10-19T01:53:32;35.90;;;16.75;;
38427;SDS011;24211;49.980;19.776;2023-10-19T01:56:03;35.20;;;16.40;;
38427;SDS011;24211;49.980;19.776;2023-10-19T01:58:32;36.63;;;15.52;;
38427;SDS011;24211;49.980;19.776;2023-10-19T02:01:03;35.58;;;15.77;;
38427;SDS011;24211;49.980;19.776;2023-10-19T02:03:40;32.63;;;15.63;;
38427;SDS011;24211;49.980;19.776;2023-10-19T02:06:10;34.20;;;14.73;;
38427;SDS011;24211;49.980;19.776;2023-10-19T02:08:57;34.47;;;14.13;;
38427;SDS011;24211;49.980;19.776;2023-10-19T02:11:36;33.00;;;15.07;;
38427;SDS011;24211;49.980;19.776;2023-10-19T02:14:10;32.17;;;13.73;;
38427;SDS011;24211;49.980;19.776;2023-10-19T02:16:45;35.05;;;15.45;;
38427;SDS011;24211;49.980;19.776;2023-10-19T02:19:19;34.42;;;15.15;;
38427;SDS011;24211;49.980;19.776;2023-10-19T02:21:51;35.70;;;14.63;;
38427;SDS011;24211;49.980;19.776;2023-10-19T02:31:50;31.73;;;13.73;;
38427;SDS011;24211;49.980;19.776;2023-10-19T02:34:18;29.65;;;14.02;;
38427;SDS011;24211;49.980;19.776;2023-10-19T02:36:45;29.88;;;13.73;;
38427;SDS011;24211;49.980;19.776;2023-10-19T02:39:15;29.85;;;13.25;;
38427;SDS011;24211;49.980;19.776;2023-10-19T02:41:47;33.22;;;13.45;;
38427;SDS011;24211;49.980;19.776;2023-10-19T02:44:16;32.38;;;14.50;;
38427;SDS011;24211;49.980;19.776;2023-10-19T02:46:51;28.40;;;12.85;;
38427;SDS011;24211;49.980;19.776;2023-10-19T02:49:27;27.30;;;12.73;;
38427;SDS011;24211;49.980;19.776;2023-10-19T02:51:57;31.50;;;13.32;;
38427;SDS011;24211;49.980;19.776;2023-10-19T02:54:30;26.10;;;12.55;;
38427;SDS011;24211;49.980;19.776;2023-10-19T02:57:02;23.20;;;10.27;;
38427;SDS011;24211;49.980;19.776;2023-10-19T02:59:34;36.35;;;15.52;;
38427;SDS011;24211;49.980;19.776;2023-10-19T03:02:02;34.13;;;15.35;;
38427;SDS011;24211;49.980;19.776;2023-10-19T03:04:40;32.33;;;14.63;;
38427;SDS011;24211;49.980;19.776;2023-10-19T03:07:09;41.85;;;17.25;;
38427;SDS011;24211;49.980;19.776;2023-10-19T03:09:38;37.78;;;15.43;;
38427;SDS011;24211;49.980;19.776;2023-10-19T03:12:05;34.88;;;14.98;;
38427;SDS011;24211;49.980;19.776;2023-10-19T03:14:37;37.83;;;16.02;;
38427;SDS011;24211;49.980;19.776;2023-10-19T03:17:05;39.20;;;16.55;;
38427;SDS011;24211;49.980;19.776;2023-10-19T03:19:35;36.33;;;16.40;;
38427;SDS011;24211;49.980;19.776;2023-10-19T03:22:03;36.90;;;15.73;;
38427;SDS011;24211;49.980;19.776;2023-10-19T03:24:32;33.88;;;15.45;;
38427;SDS011;24211;49.980;19.776;2023-10-19T03:27:04;37.70;;;16.20;;
38427;SDS011;24211;49.980;19.776;2023-10-19T03:29:40;35.38;;;15.65;;
38427;SDS011;24211;49.980;19.776;2023-10-19T03:32:13;32.35;;;15.70;;
38427;SDS011;24211;49.980;19.776;2023-10-19T03:34:44;37.83;;;16.98;;
38427;SDS011;24211;49.980;19.776;2023-10-19T03:37:15;37.10;;;16.58;;
38427;SDS011;24211;49.980;19.776;2023-10-19T03:39:43;38.17;;;16.73;;
38427;SDS011;24211;49.980;19.776;2023-10-19T03:42:13;41.20;;;18.15;;
38427;SDS011;24211;49.980;19.776;2023-10-19T03:44:40;44.40;;;18.80;;
38427;SDS011;24211;49.980;19.776;2023-10-19T03:47:14;77.07;;;27.35;;
38427;SDS011;24211;49.980;19.776;2023-10-19T03:49:49;46.60;;;19.70;;
38427;SDS011;24211;49.980;19.776;2023-10-19T03:52:17;39.75;;;18.25;;
38427;SDS011;24211;49.980;19.776;2023-10-19T03:54:44;42.85;;;16.95;;
38427;SDS011;24211;49.980;19.776;2023-10-19T03:57:14;55.88;;;22.23;;
38427;SDS011;24211;49.980;19.776;2023-10-19T03:59:46;40.33;;;17.25;;
38427;SDS011;24211;49.980;19.776;2023-10-19T04:02:19;39.72;;;15.38;;
38427;SDS011;24211;49.980;19.776;2023-10-19T04:04:56;34.15;;;14.85;;
38427;SDS011;24211;49.980;19.776;2023-10-19T04:07:24;38.20;;;15.73;;
38427;SDS011;24211;49.980;19.776;2023-10-19T04:09:53;37.25;;;16.20;;
38427;SDS011;24211;49.980;19.776;2023-10-19T04:12:38;102.35;;;33.47;;
38427;SDS011;24211;49.980;19.776;2023-10-19T04:15:09;42.58;;;17.48;;
38427;SDS011;24211;49.980;19.776;2023-10-19T04:17:43;41.78;;;16.92;;
38427;SDS011;24211;49.980;19.776;2023-10-19T04:20:12;31.90;;;13.70;;
38427;SDS011;24211;49.980;19.776;2023-10-19T04:22:44;34.10;;;14.00;;
38427;SDS011;24211;49.980;19.776;2023-10-19T04:25:14;31.88;;;13.13;;
38427;SDS011;24211;49.980;19.776;2023-10-19T04:27:43;30.20;;;12.10;;
38427;SDS011;24211;49.980;19.776;2023-10-19T04:30:13;29.45;;;12.45;;
38427;SDS011;24211;49.980;19.776;2023-10-19T04:32:49;30.23;;;12.15;;
38427;SDS011;24211;49.980;19.776;2023-10-19T04:35:18;27.30;;;11.30;;
38427;SDS011;24211;49.980;19.776;2023-10-19T04:37:52;26.63;;;11.57;;
38427;SDS011;24211;49.980;19.776;2023-10-19T04:40:20;27.73;;;11.32;;
38427;SDS011;24211;49.980;19.776;2023-10-19T04:42:50;27.27;;;11.32;;
38427;SDS011;24211;49.980;19.776;2023-10-19T04:45:19;27.38;;;10.32;;
38427;SDS011;24211;49.980;19.776;2023-10-19T04:47:49;27.17;;;10.95;;
38427;SDS011;24211;49.980;19.776;2023-10-19T04:50:20;20.83;;;9.32;;
38427;SDS011;24211;49.980;19.776;2023-10-19T04:52:48;22.45;;;10.02;;
38427;SDS011;24211;49.980;19.776;2023-10-19T04:55:15;20.58;;;9.45;;
38427;SDS011;24211;49.980;19.776;2023-10-19T04:57:43;19.27;;;9.25;;
38427;SDS011;24211;49.980;19.776;2023-10-19T05:00:10;22.88;;;9.52;;
38427;SDS011;24211;49.980;19.776;2023-10-19T05:02:41;21.80;;;9.07;;
38427;SDS011;24211;49.980;19.776;2023-10-19T05:05:09;22.75;;;9.10;;
38427;SDS011;24211;49.980;19.776;2023-10-19T05:07:37;22.27;;;9.45;;
38427;SDS011;24211;49.980;19.776;2023-10-19T05:10:05;20.63;;;9.20;;
38427;SDS011;24211;49.980;19.776;2023-10-19T05:12:33;21.45;;;9.18;;
38427;SDS011;24211;49.980;19.776;2023-10-19T05:15:00;22.05;;;9.93;;
38427;SDS011;24211;49.980;19.776;2023-10-19T05:17:27;23.40;;;9.82;;
38427;SDS011;24211;49.980;19.776;2023-10-19T05:19:54;23.10;;;10.00;;
38427;SDS011;24211;49.980;19.776;2023-10-19T05:22:23;22.33;;;10.30;;
38427;SDS011;24211;49.980;19.776;2023-10-19T05:24:51;21.23;;;9.98;;
38427;SDS011;24211;49.980;19.776;2023-10-19T05:27:19;24.27;;;9.98;;
38427;SDS011;24211;49.980;19.776;2023-10-19T05:29:47;20.77;;;9.25;;
38427;SDS011;24211;49.980;19.776;2023-10-19T05:32:14;21.75;;;9.75;;
38427;SDS011;24211;49.980;19.776;2023-10-19T05:34:41;20.90;;;9.48;;
38427;SDS011;24211;49.980;19.776;2023-10-19T05:37:09;23.15;;;10.02;;
38427;SDS011;24211;49.980;19.776;2023-10-19T05:39:37;21.48;;;9.93;;
38427;SDS011;24211;49.980;19.776;2023-10-19T05:42:04;22.27;;;10.77;;
38427;SDS011;24211;49.980;19.776;2023-10-19T05:44:32;36.30;;;15.55;;
38427;SDS011;24211;49.980;19.776;2023-10-19T05:47:00;45.13;;;19.65;;
38427;SDS011;24211;49.980;19.776;2023-10-19T05:49:27;25.35;;;12.38;;
38427;SDS011;24211;49.980;19.776;2023-10-19T05:51:58;27.33;;;12.88;;
38427;SDS011;24211;49.980;19.776;2023-10-19T05:54:25;30.92;;;14.20;;
38427;SDS011;24211;49.980;19.776;2023-10-19T05:56:53;28.73;;;12.25;;
38427;SDS011;24211;49.980;19.776;2023-10-19T05:59:21;42.50;;;17.77;;
38427;SDS011;24211;49.980;19.776;2023-10-19T06:01:50;40.70;;;17.73;;
38427;SDS011;24211;49.980;19.776;2023-10-19T06:04:18;36.90;;;17.27;;
38427;SDS011;24211;49.980;19.776;2023-10-19T06:06:47;28.88;;;13.95;;
38427;SDS011;24211;49.980;19.776;2023-10-19T06:09:15;25.48;;;12.30;;
38427;SDS011;24211;49.980;19.776;2023-10-19T06:11:45;36.85;;;16.65;;
38427;SDS011;24211;49.980;19.776;2023-10-19T06:14:12;34.97;;;15.48;;
38427;SDS011;24211;49.980;19.776;2023-10-19T06:16:40;48.33;;;19.55;;
38427;SDS011;24211;49.980;19.776;2023-10-19T06:19:07;31.00;;;14.82;;
38427;SDS011;24211;49.980;19.776;2023-10-19T06:21:36;42.30;;;17.80;;
38427;SDS011;24211;49.980;19.776;2023-10-19T06:24:03;37.05;;;16.52;;
38427;SDS011;24211;49.980;19.776;2023-10-19T06:26:31;42.20;;;19.63;;
38427;SDS011;24211;49.980;19.776;2023-10-19T06:28:58;30.58;;;13.63;;
38427;SDS011;24211;49.980;19.776;2023-10-19T06:31:26;31.98;;;14.35;;
38427;SDS011;24211;49.980;19.776;2023-10-19T06:33:55;28.92;;;13.20;;
38427;SDS011;24211;49.980;19.776;2023-10-19T06:36:24;43.17;;;19.42;;
38427;SDS011;24211;49.980;19.776;2023-10-19T06:38:52;34.25;;;15.00;;
38427;SDS011;24211;49.980;19.776;2023-10-19T06:41:21;40.60;;;18.55;;
38427;SDS011;24211;49.980;19.776;2023-10-19T06:43:48;37.63;;;18.15;;
38427;SDS011;24211;49.980;19.776;2023-10-19T06:46:16;36.25;;;17.25;;
38427;SDS011;24211;49.980;19.776;2023-10-19T06:48:44;30.55;;;13.90;;
38427;SDS011;24211;49.980;19.776;2023-10-19T06:51:12;35.83;;;15.63;;
38427;SDS011;24211;49.980;19.776;2023-10-19T06:53:39;38.45;;;18.33;;
38427;SDS011;24211;49.980;19.776;2023-10-19T06:56:06;31.08;;;14.52;;
38427;SDS011;24211;49.980;19.776;2023-10-19T06:58:34;25.83;;;12.68;;
38427;SDS011;24211;49.980;19.776;2023-10-19T07:01:02;28.05;;;12.50;;
38427;SDS011;24211;49.980;19.776;2023-10-19T07:03:35;23.67;;;11.98;;
38427;SDS011;24211;49.980;19.776;2023-10-19T07:06:03;28.20;;;12.75;;
38427;SDS011;24211;49.980;19.776;2023-10-19T07:08:38;34.00;;;15.75;;
38427;SDS011;24211;49.980;19.776;2023-10-19T07:11:08;30.05;;;15.02;;
38427;SDS011;24211;49.980;19.776;2023-10-19T07:13:36;25.70;;;12.07;;
38427;SDS011;24211;49.980;19.776;2023-10-19T07:16:04;22.15;;;11.02;;
38427;SDS011;24211;49.980;19.776;2023-10-19T07:18:31;30.05;;;14.48;;
38427;SDS011;24211;49.980;19.776;2023-10-19T07:20:59;22.98;;;10.63;;
38427;SDS011;24211;49.980;19.776;2023-10-19T07:23:36;23.92;;;10.27;;
38427;SDS011;24211;49.980;19.776;2023-10-19T07:26:04;29.52;;;11.88;;
38427;SDS011;24211;49.980;19.776;2023-10-19T07:28:32;22.83;;;10.63;;
38427;SDS011;24211;49.980;19.776;2023-10-19T07:31:04;27.77;;;11.75;;
38427;SDS011;24211;49.980;19.776;2023-10-19T07:33:33;22.48;;;10.73;;
38427;SDS011;24211;49.980;19.776;2023-10-19T07:36:03;23.63;;;12.10;;
38427;SDS011;24211;49.980;19.776;2023-10-19T07:38:34;28.17;;;13.38;;
38427;SDS011;24211;49.980;19.776;2023-10-19T07:41:02;30.85;;;15.35;;
38427;SDS011;24211;49.980;19.776;2023-10-19T07:43:30;23.73;;;11.70;;
38427;SDS011;24211;49.980;19.776;2023-10-19T07:45:57;28.92;;;13.23;;
38427;SDS011;24211;49.980;19.776;2023-10-19T07:48:25;27.60;;;12.93;;
38427;SDS011;24211;49.980;19.776;2023-10-19T07:50:53;24.73;;;11.88;;
38427;SDS011;24211;49.980;19.776;2023-10-19T07:53:20;23.38;;;11.60;;
38427;SDS011;24211;49.980;19.776;2023-10-19T07:55:48;24.02;;;11.88;;
38427;SDS011;24211;49.980;19.776;2023-10-19T07:58:15;23.48;;;10.35;;
38427;SDS011;24211;49.980;19.776;2023-10-19T08:00:43;30.63;;;13.05;;
38427;SDS011;24211;49.980;19.776;2023-10-19T08:03:13;23.98;;;12.35;;
38427;SDS011;24211;49.980;19.776;2023-10-19T08:05:45;26.95;;;12.15;;
38427;SDS011;24211;49.980;19.776;2023-10-19T08:08:12;21.58;;;11.18;;
38427;SDS011;24211;49.980;19.776;2023-10-19T08:10:39;26.83;;;13.52;;
38427;SDS011;24211;49.980;19.776;2023-10-19T08:13:06;19.63;;;9.75;;
38427;SDS011;24211;49.980;19.776;2023-10-19T08:15:34;22.98;;;12.48;;
38427;SDS011;24211;49.980;19.776;2023-10-19T08:18:02;22.92;;;10.73;;
38427;SDS011;24211;49.980;19.776;2023-10-19T08:20:32;24.45;;;13.05;;
38427;SDS011;24211;49.980;19.776;2023-10-19T08:23:03;28.23;;;13.32;;
38427;SDS011;24211;49.980;19.776;2023-10-19T08:25:32;29.33;;;13.25;;
38427;SDS011;24211;49.980;19.776;2023-10-19T08:28:20;24.73;;;11.25;;
38427;SDS011;24211;49.980;19.776;2023-10-19T08:30:49;27.55;;;12.13;;
38427;SDS011;24211;49.980;19.776;2023-10-19T08:33:29;28.15;;;12.80;;
38427;SDS011;24211;49.980;19.776;2023-10-19T08:36:01;24.13;;;11.10;;
38427;SDS011;24211;49.980;19.776;2023-10-19T08:38:28;23.35;;;12.40;;
38427;SDS011;24211;49.980;19.776;2023-10-19T08:40:56;31.30;;;12.68;;
38427;SDS011;24211;49.980;19.776;2023-10-19T08:43:23;27.33;;;12.55;;
38427;SDS011;24211;49.980;19.776;2023-10-19T08:45:53;23.92;;;11.77;;
38427;SDS011;24211;49.980;19.776;2023-10-19T08:48:21;24.40;;;11.93;;
38427;SDS011;24211;49.980;19.776;2023-10-19T08:50:49;20.00;;;9.13;;
38427;SDS011;24211;49.980;19.776;2023-10-19T08:53:18;21.02;;;9.35;;
38427;SDS011;24211;49.980;19.776;2023-10-19T08:55:47;20.42;;;9.32;;
38427;SDS011;24211;49.980;19.776;2023-10-19T08:58:17;21.85;;;10.50;;
38427;SDS011;24211;49.980;19.776;2023-10-19T09:00:47;19.20;;;8.82;;
38427;SDS011;24211;49.980;19.776;2023-10-19T09:03:23;18.10;;;7.90;;
38427;SDS011;24211;49.980;19.776;2023-10-19T09:05:54;19.30;;;8.20;;
38427;SDS011;24211;49.980;19.776;2023-10-19T09:08:23;21.77;;;8.93;;
38427;SDS011;24211;49.980;19.776;2023-10-19T09:10:51;16.80;;;8.77;;
38427;SDS011;24211;49.980;19.776;2023-10-19T09:13:21;17.17;;;8.25;;
38427;SDS011;24211;49.980;19.776;2023-10-19T09:15:50;18.40;;;9.07;;
38427;SDS011;24211;49.980;19.776;2023-10-19T09:18:24;16.80;;;7.97;;
38427;SDS011;24211;49.980;19.776;2023-10-19T09:20:56;18.15;;;9.00;;
38427;SDS011;24211;49.980;19.776;2023-10-19T09:23:34;16.08;;;8.65;;
38427;SDS011;24211;49.980;19.776;2023-10-19T09:26:03;19.35;;;10.60;;
38427;SDS011;24211;49.980;19.776;2023-10-19T09:28:36;23.10;;;11.57;;
38427;SDS011;24211;49.980;19.776;2023-10-19T09:31:05;15.63;;;7.82;;
38427;SDS011;24211;49.980;19.776;2023-10-19T09:33:36;13.90;;;7.25;;
38427;SDS011;24211;49.980;19.776;2023-10-19T09:36:08;15.75;;;7.50;;
38427;SDS011;24211;49.980;19.776;2023-10-19T09:38:47;15.88;;;7.70;;
38427;SDS011;24211;49.980;19.776;2023-10-19T09:41:20;13.38;;;7.25;;
38427;SDS011;24211;49.980;19.776;2023-10-19T09:43:49;17.17;;;7.40;;
38427;SDS011;24211;49.980;19.776;2023-10-19T09:46:36;13.10;;;6.82;;
38427;SDS011;24211;49.980;19.776;2023-10-19T09:49:07;19.73;;;9.98;;
38427;SDS011;24211;49.980;19.776;2023-10-19T09:51:38;14.98;;;7.40;;
38427;SDS011;24211;49.980;19.776;2023-10-19T09:54:22;15.05;;;6.90;;
38427;SDS011;24211;49.980;19.776;2023-10-19T09:57:10;20.33;;;10.55;;
38427;SDS011;24211;49.980;19.776;2023-10-19T09:59:48;22.17;;;11.70;;
38427;SDS011;24211;49.980;19.776;2023-10-19T10:02:25;24.27;;;11.45;;
38427;SDS011;24211;49.980;19.776;2023-10-19T10:04:54;17.75;;;8.95;;
38427;SDS011;24211;49.980;19.776;2023-10-19T10:07:23;17.95;;;7.72;;
38427;SDS011;24211;49.980;19.776;2023-10-19T10:09:57;18.75;;;9.13;;
38427;SDS011;24211;49.980;19.776;2023-10-19T10:12:25;14.93;;;7.30;;
38427;SDS011;24211;49.980;19.776;2023-10-19T10:14:56;23.90;;;11.93;;
38427;SDS011;24211;49.980;19.776;2023-10-19T10:17:37;22.48;;;10.93;;
38427;SDS011;24211;49.980;19.776;2023-10-19T10:22:44;16.17;;;8.20;;
38427;SDS011;24211;49.980;19.776;2023-10-19T10:25:45;26.90;;;12.38;;
38427;SDS011;24211;49.980;19.776;2023-10-19T10:28:16;25.50;;;12.60;;
38427;SDS011;24211;49.980;19.776;2023-10-19T10:31:06;18.73;;;10.00;;
38427;SDS011;24211;49.980;19.776;2023-10-19T10:33:42;17.35;;;7.88;;
38427;SDS011;24211;49.980;19.776;2023-10-19T10:36:16;17.52;;;7.93;;
38427;SDS011;24211;49.980;19.776;2023-10-19T10:38:45;15.02;;;8.10;;
38427;SDS011;24211;49.980;19.776;2023-10-19T10:41:21;22.98;;;11.38;;
38427;SDS011;24211;49.980;19.776;2023-10-19T10:43:56;17.92;;;7.45;;
38427;SDS011;24211;49.980;19.776;2023-10-19T10:46:25;26.55;;;11.98;;
38427;SDS011;24211;49.980;19.776;2023-10-19T10:48:56;21.13;;;10.02;;
38427;SDS011;24211;49.980;19.776;2023-10-19T10:51:24;25.83;;;11.75;;
38427;SDS011;24211;49.980;19.776;2023-10-19T10:53:58;18.48;;;8.98;;
38427;SDS011;24211;49.980;19.776;2023-10-19T10:56:27;16.27;;;8.07;;
38427;SDS011;24211;49.980;19.776;2023-10-19T10:58:55;18.27;;;7.38;;
38427;SDS011;24211;49.980;19.776;2023-10-19T11:01:31;21.65;;;10.73;;
38427;SDS011;24211;49.980;19.776;2023-10-19T11:04:05;16.40;;;8.10;;
38427;SDS011;24211;49.980;19.776;2023-10-19T11:06:50;18.08;;;9.02;;
38427;SDS011;24211;49.980;19.776;2023-10-19T11:09:22;19.65;;;9.30;;
38427;SDS011;24211;49.980;19.776;2023-10-19T11:11:49;16.75;;;7.13;;
38427;SDS011;24211;49.980;19.776;2023-10-19T11:14:19;16.50;;;7.72;;
38427;SDS011;24211;49.980;19.776;2023-10-19T11:16:50;14.23;;;7.57;;
38427;SDS011;24211;49.980;19.776;2023-10-19T11:19:17;15.85;;;8.18;;
38427;SDS011;24211;49.980;19.776;2023-10-19T11:21:54;16.67;;;7.70;;
38427;SDS011;24211;49.980;19.776;2023-10-19T11:24:28;28.88;;;11.95;;
38427;SDS011;24211;49.980;19.776;2023-10-19T11:27:01;18.52;;;9.23;;
38427;SDS011;24211;49.980;19.776;2023-10-19T11:29:29;17.75;;;8.75;;
38427;SDS011;24211;49.980;19.776;2023-10-19T11:31:57;22.42;;;10.73;;
38427;SDS011;24211;49.980;19.776;2023-10-19T11:34:30;32.45;;;13.13;;
38427;SDS011;24211;49.980;19.776;2023-10-19T11:37:02;24.13;;;11.33;;
38427;SDS011;24211;49.980;19.776;2023-10-19T11:39:32;30.17;;;14.38;;
38427;SDS011;24211;49.980;19.776;2023-10-19T11:41:59;25.17;;;12.25;;
38427;SDS011;24211;49.980;19.776;2023-10-19T11:44:27;19.33;;;8.90;;
38427;SDS011;24211;49.980;19.776;2023-10-19T11:46:55;18.23;;;8.35;;
38427;SDS011;24211;49.980;19.776;2023-10-19T11:49:23;17.88;;;8.45;;
38427;SDS011;24211;49.980;19.776;2023-10-19T11:51:52;24.63;;;12.25;;
38427;SDS011;24211;49.980;19.776;2023-10-19T11:54:19;19.08;;;10.15;;
38427;SDS011;24211;49.980;19.776;2023-10-19T11:56:47;20.08;;;9.98;;
38427;SDS011;24211;49.980;19.776;2023-10-19T11:59:15;25.98;;;12.75;;
38427;SDS011;24211;49.980;19.776;2023-10-19T12:01:43;21.83;;;10.65;;
38427;SDS011;24211;49.980;19.776;2023-10-19T12:04:10;28.67;;;14.38;;
38427;SDS011;24211;49.980;19.776;2023-10-19T12:06:38;28.30;;;13.75;;
38427;SDS011;24211;49.980;19.776;2023-10-19T12:09:05;27.10;;;14.10;;
38427;SDS011;24211;49.980;19.776;2023-10-19T12:11:41;27.20;;;13.82;;
38427;SDS011;24211;49.980;19.776;2023-10-19T12:14:12;32.00;;;14.52;;
38427;SDS011;24211;49.980;19.776;2023-10-19T12:16:41;25.17;;;11.77;;
38427;SDS011;24211;49.980;19.776;2023-10-19T12:19:09;19.92;;;10.18;;
38427;SDS011;24211;49.980;19.776;2023-10-19T12:21:36;24.80;;;12.32;;
38427;SDS011;24211;49.980;19.776;2023-10-19T12:24:08;27.90;;;13.47;;
38427;SDS011;24211;49.980;19.776;2023-10-19T12:26:35;20.95;;;10.13;;
38427;SDS011;24211;49.980;19.776;2023-10-19T12:29:03;20.75;;;10.60;;
38427;SDS011;24211;49.980;19.776;2023-10-19T12:31:33;20.25;;;10.23;;
38427;SDS011;24211;49.980;19.776;2023-10-19T12:34:01;17.92;;;9.43;;
38427;SDS011;24211;49.980;19.776;2023-10-19T12:36:28;18.65;;;9.65;;
38427;SDS011;24211;49.980;19.776;2023-10-19T12:38:58;20.63;;;9.70;;
38427;SDS011;24211;49.980;19.776;2023-10-19T12:41:27;18.15;;;8.80;;
38427;SDS011;24211;49.980;19.776;2023-10-19T12:43:55;17.05;;;9.07;;
38427;SDS011;24211;49.980;19.776;2023-10-19T12:46:35;17.85;;;9.00;;
38427;SDS011;24211;49.980;19.776;2023-10-19T12:49:05;19.75;;;8.20;;
38427;SDS011;24211;49.980;19.776;2023-10-19T12:51:40;20.40;;;8.80;;
38427;SDS011;24211;49.980;19.776;2023-10-19T12:54:09;17.75;;;8.48;;
38427;SDS011;24211;49.980;19.776;2023-10-19T12:56:40;18.33;;;9.10;;
38427;SDS011;24211;49.980;19.776;2023-10-19T12:59:07;15.60;;;8.55;;
38427;SDS011;24211;49.980;19.776;2023-10-19T13:01:34;16.55;;;8.68;;
38427;SDS011;24211;49.980;19.776;2023-10-19T13:04:03;20.23;;;8.68;;
38427;SDS011;24211;49.980;19.776;2023-10-19T13:06:43;15.27;;;8.23;;
38427;SDS011;24211;49.980;19.776;2023-10-19T13:09:14;17.90;;;8.60;;
38427;SDS011;24211;49.980;19.776;2023-10-19T13:11:43;21.92;;;11.30;;
38427;SDS011;24211;49.980;19.776;2023-10-19T13:14:10;18.80;;;8.38;;
38427;SDS011;24211;49.980;19.776;2023-10-19T13:16:38;17.27;;;8.68;;
38427;SDS011;24211;49.980;19.776;2023-10-19T13:19:06;15.77;;;8.48;;
38427;SDS011;24211;49.980;19.776;2023-10-19T13:21:41;17.58;;;8.57;;
38427;SDS011;24211;49.980;19.776;2023-10-19T13:24:09;15.88;;;8.27;;
38427;SDS011;24211;49.980;19.776;2023-10-19T13:26:36;25.77;;;11.95;;
38427;SDS011;24211;49.980;19.776;2023-10-19T13:29:05;23.75;;;12.73;;
38427;SDS011;24211;49.980;19.776;2023-10-19T13:31:32;17.85;;;9.27;;
38427;SDS011;24211;49.980;19.776;2023-10-19T13:34:01;32.42;;;15.38;;
38427;SDS011;24211;49.980;19.776;2023-10-19T13:36:29;25.25;;;13.95;;
38427;SDS011;24211;49.980;19.776;2023-10-19T13:38:57;20.60;;;9.90;;
38427;SDS011;24211;49.980;19.776;2023-10-19T13:41:24;29.88;;;14.98;;
38427;SDS011;24211;49.980;19.776;2023-10-19T13:43:51;17.92;;;10.10;;
38427;SDS011;24211;49.980;19.776;2023-10-19T13:46:18;24.75;;;13.45;;
38427;SDS011;24211;49.980;19.776;2023-10-19T13:48:47;26.10;;;12.20;;
38427;SDS011;24211;49.980;19.776;2023-10-19T13:51:15;16.25;;;8.70;;
38427;SDS011;24211;49.980;19.776;2023-10-19T13:53:46;30.33;;;14.65;;
38427;SDS011;24211;49.980;19.776;2023-10-19T13:56:13;17.20;;;9.55;;
38427;SDS011;24211;49.980;19.776;2023-10-19T13:58:43;16.73;;;9.00;;
38427;SDS011;24211;49.980;19.776;2023-10-19T14:01:15;19.00;;;9.15;;
38427;SDS011;24211;49.980;19.776;2023-10-19T14:03:44;20.20;;;10.07;;
38427;SDS011;24211;49.980;19.776;2023-10-19T14:06:12;18.33;;;8.52;;
38427;SDS011;24211;49.980;19.776;2023-10-19T14:08:41;18.30;;;8.88;;
38427;SDS011;24211;49.980;19.776;2023-10-19T14:11:09;27.02;;;14.50;;
38427;SDS011;24211;49.980;19.776;2023-10-19T14:13:37;31.90;;;15.77;;
38427;SDS011;24211;49.980;19.776;2023-10-19T14:16:07;23.63;;;12.70;;
38427;SDS011;24211;49.980;19.776;2023-10-19T14:18:36;16.13;;;9.05;;
38427;SDS011;24211;49.980;19.776;2023-10-19T14:21:11;26.13;;;13.40;;
38427;SDS011;24211;49.980;19.776;2023-10-19T14:23:43;18.30;;;9.30;;
38427;SDS011;24211;49.980;19.776;2023-10-19T14:26:12;21.02;;;10.20;;
38427;SDS011;24211;49.980;19.776;2023-10-19T14:28:40;28.15;;;15.43;;
38427;SDS011;24211;49.980;19.776;2023-10-19T14:31:08;24.33;;;12.75;;
38427;SDS011;24211;49.980;19.776;2023-10-19T14:33:35;31.30;;;15.57;;
38427;SDS011;24211;49.980;19.776;2023-10-19T14:36:05;27.38;;;13.57;;
38427;SDS011;24211;49.980;19.776;2023-10-19T14:38:34;24.88;;;12.48;;
38427;SDS011;24211;49.980;19.776;2023-10-19T14:41:02;32.58;;;15.60;;
38427;SDS011;24211;49.980;19.776;2023-10-19T14:43:30;18.15;;;9.13;;
38427;SDS011;24211;49.980;19.776;2023-10-19T14:45:58;22.15;;;11.55;;